createdAt,value
2022-12-23T00:04:08.920Z,83.49
2022-12-23T00:09:12.240Z,83.37
2022-12-23T00:14:34.572Z,83.41
2022-12-23T00:19:37.853Z,83.40
2022-12-23T00:24:41.089Z,83.30
2022-12-23T00:29:44.572Z,83.39
2022-12-23T00:34:47.829Z,83.39
2022-12-23T00:40:09.798Z,83.19
2022-12-23T00:45:19.098Z,83.11
2022-12-23T00:50:22.370Z,83.05
2022-12-23T00:55:25.808Z,83.04
2022-12-23T01:00:47.900Z,83.04
2022-12-23T01:05:51.199Z,82.90
2022-12-23T01:10:55.071Z,82.89
2022-12-23T01:16:10.596Z,82.67
2022-12-23T01:21:18.744Z,82.45
2022-12-23T01:26:21.976Z,82.24
2022-12-23T01:31:27.094Z,82.19
2022-12-23T01:36:30.379Z,82.13
2022-12-23T01:41:53.194Z,82.06
2022-12-23T01:46:56.437Z,82.06
2022-12-23T01:51:59.713Z,81.95
2022-12-23T01:57:03.151Z,82.01
2022-12-23T02:02:25.319Z,82.08
2022-12-23T02:07:47.648Z,82.24
2022-12-23T02:13:27.020Z,82.32
2022-12-23T02:18:52.016Z,82.38
2022-12-23T02:24:04.251Z,82.31
2022-12-23T02:29:10.602Z,82.13
2022-12-23T02:34:30.633Z,81.86
2022-12-23T02:39:38.905Z,81.59
2022-12-23T02:45:05.202Z,81.35
2022-12-23T02:50:19.710Z,81.30
2022-12-23T02:55:30.583Z,81.37
2022-12-23T03:00:36.229Z,81.13
2022-12-23T03:05:44.316Z,81.14
2022-12-23T03:10:59.961Z,81.19
2022-12-23T03:16:03.224Z,81.13
2022-12-23T03:21:13.433Z,81.26
2022-12-23T03:26:23.768Z,81.26
2022-12-23T03:31:32.409Z,81.36
2022-12-23T03:36:42.167Z,81.72
2022-12-23T03:41:54.544Z,81.89
2022-12-23T03:47:14.842Z,81.96
2022-12-23T03:52:24.557Z,82.37
2022-12-23T03:57:38.568Z,82.56
2022-12-23T04:03:25.648Z,82.75
2022-12-23T04:08:40.712Z,82.84
2022-12-23T04:13:44.074Z,83.00
2022-12-23T04:18:47.387Z,83.31
2022-12-23T04:23:50.695Z,83.63
2022-12-23T04:28:53.988Z,83.79
2022-12-23T04:33:57.837Z,83.92
2022-12-23T04:39:01.077Z,84.08
2022-12-23T04:44:04.411Z,84.02
2022-12-23T04:49:07.798Z,83.89
2022-12-23T04:54:11.074Z,83.84
2022-12-23T04:59:14.518Z,83.68
2022-12-23T05:04:17.968Z,83.72
2022-12-23T05:09:21.280Z,83.55
2022-12-23T05:14:24.978Z,83.54
2022-12-23T05:19:28.227Z,83.58
2022-12-23T05:24:31.541Z,83.28
2022-12-23T05:29:34.754Z,83.32
2022-12-23T05:34:40.178Z,83.12
2022-12-23T05:39:43.555Z,83.14
2022-12-23T05:44:46.933Z,83.38
2022-12-23T05:49:51.015Z,83.42
2022-12-23T05:54:54.360Z,83.27
2022-12-23T05:59:58.137Z,83.15
2022-12-23T06:05:01.375Z,83.00
2022-12-23T06:10:06.725Z,83.09
2022-12-23T06:15:10.996Z,83.14
2022-12-23T06:20:20.450Z,83.11
2022-12-23T06:25:24.409Z,83.10
2022-12-23T06:30:28.288Z,83.22
2022-12-23T06:35:31.658Z,83.12
2022-12-23T06:40:35.006Z,83.08
2022-12-23T06:45:38.467Z,83.07
2022-12-23T06:50:41.735Z,83.15
2022-12-23T06:55:45.154Z,83.23
2022-12-23T07:00:48.382Z,83.28
2022-12-23T07:05:52.621Z,83.18
2022-12-23T07:11:06.485Z,83.09
2022-12-23T07:16:10.239Z,83.03
2022-12-23T07:21:21.328Z,83.02
2022-12-23T07:26:28.254Z,82.93
2022-12-23T07:31:31.586Z,82.84
2022-12-23T07:36:35.068Z,82.93
2022-12-23T07:41:38.433Z,82.90
2022-12-23T07:46:41.866Z,82.91
2022-12-23T07:51:45.241Z,82.82
2022-12-23T07:56:48.675Z,82.79
2022-12-23T08:01:52.060Z,82.74
2022-12-23T08:06:55.504Z,82.75
2022-12-23T08:11:58.767Z,82.75
2022-12-23T08:17:02.157Z,82.51
2022-12-23T08:22:05.573Z,82.49
2022-12-23T08:27:09.458Z,82.38
2022-12-23T08:32:12.833Z,82.08
2022-12-23T08:37:17.057Z,82.33
2022-12-23T08:42:20.777Z,81.86
2022-12-23T08:47:24.126Z,82.06
2022-12-23T08:52:28.299Z,82.48
2022-12-23T08:57:31.654Z,81.94
2022-12-23T09:02:35.174Z,82.56
2022-12-23T09:07:38.555Z,81.93
2022-12-23T09:12:41.950Z,81.77
2022-12-23T09:17:45.246Z,81.37
2022-12-23T09:22:48.564Z,81.26
2022-12-23T09:27:51.915Z,81.71
2022-12-23T09:32:55.499Z,81.56
2022-12-23T09:37:58.787Z,81.46
2022-12-23T09:43:39.589Z,81.64
2022-12-23T09:48:57.890Z,81.80
2022-12-23T09:54:16.425Z,81.76
2022-12-23T09:59:27.045Z,82.53
2022-12-23T10:04:40.208Z,81.89
2022-12-23T10:09:46.939Z,82.03
2022-12-23T10:14:53.051Z,82.18
2022-12-23T10:20:02.795Z,82.28
2022-12-23T10:25:14.716Z,82.52
2022-12-23T10:30:54.026Z,82.14
2022-12-23T10:36:10.467Z,82.37
2022-12-23T10:41:22.825Z,81.92
2022-12-23T10:46:51.138Z,81.92
2022-12-23T10:52:01.246Z,82.21
2022-12-23T10:57:06.087Z,82.53
2022-12-23T11:02:12.693Z,82.21
2022-12-23T11:07:45.444Z,81.96
2022-12-23T11:12:52.871Z,82.38
2022-12-23T11:18:04.192Z,82.23
2022-12-23T11:23:27.153Z,82.03
2022-12-23T11:28:31.910Z,81.63
2022-12-23T11:33:48.219Z,81.81
2022-12-23T11:38:54.509Z,81.68
2022-12-23T11:44:11.657Z,81.71
2022-12-23T11:49:16.698Z,81.31
2022-12-23T11:54:23.455Z,80.92
2022-12-23T11:59:33.087Z,80.91
2022-12-23T12:04:38.687Z,79.66
2022-12-23T12:09:44.023Z,79.38
2022-12-23T12:14:50.576Z,80.04
2022-12-23T12:20:06.407Z,79.01
2022-12-23T12:25:20.185Z,78.81
2022-12-23T12:30:23.791Z,79.45
2022-12-23T12:35:44.708Z,79.35
2022-12-23T12:40:52.927Z,79.01
2022-12-23T12:46:12.485Z,78.76
2022-12-23T12:51:43.953Z,79.03
2022-12-23T12:56:52.172Z,79.87
2022-12-23T13:02:33.722Z,79.87
2022-12-23T13:08:09.557Z,80.29
2022-12-23T13:13:37.831Z,79.88
2022-12-23T13:19:06.922Z,79.97
2022-12-23T13:24:22.545Z,80.33
2022-12-23T13:29:43.405Z,80.97
2022-12-23T13:35:06.905Z,80.49
2022-12-23T13:40:47.590Z,81.10
2022-12-23T13:45:55.721Z,81.38
2022-12-23T13:51:18.213Z,80.88
2022-12-23T13:56:39.432Z,80.58
2022-12-23T14:01:42.755Z,80.65
2022-12-23T14:06:48.750Z,81.02
2022-12-23T14:11:53.154Z,81.19
2022-12-23T14:17:21.342Z,81.21
2022-12-23T14:22:49.597Z,81.46
2022-12-23T14:28:19.970Z,81.68
2022-12-23T14:33:32.977Z,81.31
2022-12-23T14:38:36.450Z,81.48
2022-12-23T14:43:45.803Z,81.68
2022-12-23T14:48:49.925Z,81.69
2022-12-23T14:53:59.480Z,81.74
2022-12-23T14:59:21.686Z,81.92
2022-12-23T15:04:29.761Z,82.23
2022-12-23T15:09:45.568Z,82.37
2022-12-23T15:15:03.674Z,82.47
2022-12-23T15:20:20.021Z,82.53
2022-12-23T15:25:34.650Z,82.60
2022-12-23T15:30:48.844Z,82.46
2022-12-23T15:35:52.910Z,82.68
2022-12-23T15:41:01.103Z,82.84
2022-12-23T15:46:25.007Z,82.94
2022-12-23T15:52:05.886Z,82.90
2022-12-23T15:57:03.606Z,82.86
2022-12-23T16:02:58.867Z,82.97
2022-12-23T16:07:49.117Z,83.30
2022-12-23T16:12:53.443Z,83.45
2022-12-23T16:18:13.644Z,83.40
2022-12-23T16:23:18.071Z,83.41
2022-12-23T16:28:26.839Z,83.39
2022-12-23T16:33:38.303Z,83.27
2022-12-23T16:38:41.979Z,83.21
2022-12-23T16:43:51.843Z,83.09
2022-12-23T16:48:59.424Z,83.11
2022-12-23T16:54:02.887Z,82.91
2022-12-23T16:59:06.422Z,82.83
2022-12-23T17:04:09.857Z,83.05
2022-12-23T17:09:14.768Z,83.03
2022-12-23T17:14:21.431Z,83.04
2022-12-23T17:19:29.367Z,83.16
2022-12-23T17:24:33.294Z,83.10
2022-12-23T17:29:36.546Z,83.15
2022-12-23T17:34:41.182Z,83.18
2022-12-23T17:39:47.185Z,83.19
2022-12-23T17:44:51.632Z,83.23
2022-12-23T17:49:54.995Z,83.25
2022-12-23T17:54:58.464Z,83.37
2022-12-23T18:00:01.768Z,83.44
2022-12-23T18:05:35.354Z,83.43
2022-12-23T18:10:40.760Z,83.35
2022-12-23T18:15:45.749Z,83.25
2022-12-23T18:20:52.433Z,83.36
2022-12-23T18:25:56.875Z,83.10
2022-12-23T18:31:00.428Z,83.23
2022-12-23T18:36:04.543Z,83.08
2022-12-23T18:41:12.335Z,82.94
2022-12-23T18:46:15.899Z,83.01
2022-12-23T18:51:21.916Z,82.98
2022-12-23T18:56:25.243Z,82.85
2022-12-23T19:01:28.668Z,82.92
2022-12-23T19:06:32.017Z,83.01
2022-12-23T19:11:36.362Z,82.95
2022-12-23T19:16:39.879Z,82.89
2022-12-23T19:21:43.519Z,82.87
2022-12-23T19:26:47.208Z,82.85
2022-12-23T19:31:50.534Z,82.83
2022-12-23T19:36:54.089Z,82.92
2022-12-23T19:41:57.450Z,82.96
2022-12-23T19:47:01.527Z,82.93
2022-12-23T19:52:05.053Z,83.14
2022-12-23T19:57:08.485Z,83.32
2022-12-23T20:02:17.545Z,83.48
2022-12-23T20:07:21.435Z,83.58
2022-12-23T20:12:26.793Z,83.57
2022-12-23T20:17:33.156Z,83.55
2022-12-23T20:22:37.858Z,83.49
2022-12-23T20:27:41.317Z,83.47
2022-12-23T20:32:45.779Z,83.50
2022-12-23T20:37:49.231Z,83.42
2022-12-23T20:42:52.669Z,83.29
2022-12-23T20:47:56.221Z,83.29
2022-12-23T20:52:59.581Z,83.36
2022-12-23T20:58:23.030Z,83.36
2022-12-23T21:03:26.669Z,83.23
2022-12-23T21:08:30.359Z,83.14
2022-12-23T21:13:37.453Z,83.19
2022-12-23T21:18:44.056Z,83.28
2022-12-23T21:23:48.246Z,83.34
2022-12-23T21:28:53.787Z,82.87
2022-12-23T21:34:00.077Z,81.85
2022-12-23T21:39:07.791Z,82.92
2022-12-23T21:44:15.866Z,82.42
2022-12-23T21:49:20.808Z,81.03
2022-12-23T21:54:24.831Z,80.26
2022-12-23T21:59:34.714Z,80.42
2022-12-23T22:04:38.735Z,80.51
2022-12-23T22:09:42.145Z,80.68
2022-12-23T22:14:46.101Z,80.54
2022-12-23T22:19:50.093Z,80.57
2022-12-23T22:24:56.998Z,80.55
2022-12-23T22:30:01.386Z,80.56
2022-12-23T22:35:06.394Z,80.60
2022-12-23T22:40:13.356Z,81.01
2022-12-23T22:45:16.924Z,80.55
2022-12-23T22:50:20.377Z,80.22
2022-12-23T22:55:24.417Z,80.19
2022-12-23T23:00:27.895Z,80.09
2022-12-23T23:05:31.393Z,79.97
2022-12-23T23:10:34.725Z,80.01
2022-12-23T23:15:37.985Z,79.84
2022-12-23T23:20:41.515Z,79.58
2022-12-23T23:25:46.258Z,79.69
2022-12-23T23:31:03.607Z,79.75
2022-12-23T23:36:12.877Z,79.70
2022-12-23T23:41:22.503Z,79.59
2022-12-23T23:46:26.621Z,79.44
2022-12-23T23:51:30.084Z,79.60
2022-12-23T23:56:38.198Z,79.72
